Terminal Aerodrome Forecast
Issued by NWS Mt. Holly, NJ

Home | Current Version | Previous Version | Text Only | Print | Product List | Glossary On
Versions: 1 2 3 4 5 6 7 8 9 10 11 12 13 14 15 16 17 18 19 20 21 22 23 24 25 26
433
FTUS41 KPHI 301127
TAFPHL
TAF
KPHL 301127Z 3012/3118 09008KT P6SM BKN008 BKN012
     FM301400 12008KT P6SM VCSH OVC012
     FM310000 13006KT 5SM BR OVC006 PROB30 3101/3105 2SM -SHRA BR
     FM310500 15006KT 2SM -DZ OVC003
     FM311500 19005KT P6SM BKN015=

USA.gov is the U.S. government's official web portal to all federal, state and local government web resources and services.